Macks Inn, Idaho
Current Conditions -  °F | °C
As of 7:56 PM on Friday 28 Nov 2014 (Local Time) from KDIJ Reporting Station
Scattered Clouds Scattered Clouds  
Wind Chill: 37°   Ceiling: Unl
Heat Index: 44°   Visibility: 10mi
Dew Point: 18°   Wind: 16mph
Humidity: 36%   Direction: 200°SSW
Pressure: 29.73"   Gusts: 23mph
Location:  44.5°N, 111.25°W
Report Text: KDIJ 290256Z AUTO 20014G20KT 10SM SCT110 07/M08 A2973 RMK AO2 58011 T00661077 SLP025
Loading
Personal Weather Stations






























Interactive Weather Map New forecast layout! Learn more

10-Day Weather Forecast

Advertisements
Track Severe Weather on mobile